Weather History for KLVN - September, 2012

Change the Weather History Date:

Wednesday, September 5, 2012

  Actual Average Record
Temperature  
Mean Temperature 66 °F -  
Max Temperature 78 °F 76 °F 94 °F (1960)
Min Temperature 53 °F 53 °F 38 °F (1974)
Growing Degree Days 16 (Base 50)    
Moisture  
Dew Point 54 °F    
Average Humidity 66    
Maximum Humidity 100    
Minimum Humidity 39    
Precipitation  
Precipitation 0.04 in - - ()
Sea Level Pressure  
Sea Level Pressure 29.84 in    
Wind  
Wind Speed 6 mph (WNW)    
Max Wind Speed 13 mph    
Max Gust Speed 23 mph    
Visibility 10 miles    
Events Rain , Thunderstorm    
Averages and records for this station are not official NWS values.
T = Trace of Precipitation, MM = Missing Value Source: NWS Daily Summary

Daily Weather History Graph

Daily Weather History Graph

Search for Another Location

Airport or City:

Trip Planner

Search our weather history database for the weather conditions in past years. The results will help you decide how hot, cold, wet, or windy it might be!

Date:

Astronomy

Sep. 05, 2012 Rise Set
Actual Time 6:40 AM CDT 7:41 PM CDT
Civil Twilight 6:10 AM CDT 8:10 PM CDT
Nautical Twilight 5:35 AM CDT 8:46 PM CDT
Astronomical Twilight 4:57 AM CDT 9:23 PM CDT
Moon 9:55 PM CDT (9/5) 12:00 PM CDT (9/5)
Length of Visible Light 14h 00m
Length of Day
13h 00m
Waning Gibbous, 76% of the Moon is Illuminated
Sep 5
Waning Gibbous
Sep 8
Last Quarter
Sep 15
New
Sep 22
First Quarter
Sep 29
Full

Hourly Weather History & Observations

Time (CDT) Temp. Dew Point Humidity Pressure Visibility Wind Dir Wind Speed Gust Speed Precip Events Conditions
12:12 AM 66.2 °F 57.2 °F 73% 29.79 in 10.0 mi NW 6.9 mph - N/A Thunderstorm Thunderstorm
12:32 AM 68.0 °F 55.4 °F 64% 29.85 in 10.0 mi WSW 12.7 mph 20.7 mph N/A Thunderstorm Thunderstorm
12:51 AM 71.6 °F 53.6 °F 53% 29.87 in 10.0 mi WSW 12.7 mph 19.6 mph N/A Thunderstorm Scattered Clouds
1:12 AM 68.0 °F 55.4 °F 64% 29.85 in 10.0 mi WSW 9.2 mph 20.7 mph N/A Rain , Thunderstorm Light Thunderstorms and Rain
1:32 AM 66.2 °F 55.4 °F 68% 29.87 in 10.0 mi SW 9.2 mph 23.0 mph 0.01 in Rain Rain
1:51 AM 60.8 °F 57.2 °F 88% 29.74 in 10.0 mi SE 10.4 mph - 0.04 in Rain Light Rain
2:12 AM 60.8 °F 57.2 °F 88% 29.73 in 10.0 mi Calm Calm - N/A   Clear
2:32 AM 59.0 °F 57.2 °F 94% 29.73 in 10.0 mi Calm Calm - N/A   Clear
2:51 AM 60.8 °F 57.2 °F 88% 29.74 in 10.0 mi Calm Calm - N/A   Clear
3:12 AM 60.8 °F 57.2 °F 88% 29.77 in 10.0 mi SW 6.9 mph - N/A   Clear
3:32 AM 60.8 °F 57.2 °F 88% 29.78 in 10.0 mi West 4.6 mph - N/A   Clear
3:51 AM 59.0 °F 57.2 °F 94% 29.80 in 10.0 mi WNW 5.8 mph - N/A   Clear
4:12 AM 59.0 °F 57.2 °F 94% 29.81 in 10.0 mi NW 4.6 mph - N/A   Clear
4:32 AM 57.2 °F 55.4 °F 94% 29.81 in 10.0 mi NW 4.6 mph - N/A   Clear
4:51 AM 57.2 °F 57.2 °F 100% 29.82 in 10.0 mi Calm Calm - N/A   Clear
5:12 AM 57.2 °F 55.4 °F 94% 29.82 in 10.0 mi WNW 5.8 mph - N/A   Clear
5:31 AM 57.2 °F 55.4 °F 94% 29.82 in 10.0 mi WNW 4.6 mph - N/A   Clear
5:52 AM 57.2 °F 55.4 °F 94% 29.82 in 10.0 mi Calm Calm - N/A   Clear
6:12 AM 55.4 °F 55.4 °F 100% 29.82 in 10.0 mi SW 3.5 mph - N/A   Clear
6:31 AM 55.4 °F 55.4 °F 100% 29.82 in 10.0 mi Calm Calm - N/A   Clear
6:52 AM 55.4 °F 55.4 °F 100% 29.82 in 10.0 mi Calm Calm - N/A   Clear
7:12 AM 55.4 °F 55.4 °F 100% 29.82 in 10.0 mi SW 5.8 mph - N/A   Clear
7:31 AM 57.2 °F 57.2 °F 100% 29.84 in 10.0 mi Calm Calm - N/A   Clear
7:52 AM 60.8 °F 57.2 °F 88% 29.84 in 10.0 mi West 5.8 mph - N/A   Clear
8:12 AM 62.6 °F 57.2 °F 82% 29.84 in 10.0 mi West 4.6 mph - N/A   Scattered Clouds
8:31 AM 62.6 °F 57.2 °F 82% 29.84 in 10.0 mi Calm Calm - N/A   Clear
8:52 AM 64.4 °F 57.2 °F 77% 29.83 in 10.0 mi WSW 4.6 mph - N/A   Scattered Clouds
9:12 AM 66.2 °F 57.2 °F 73% 29.84 in 10.0 mi WNW 6.9 mph - N/A   Clear
9:31 AM 68.0 °F 55.4 °F 64% 29.84 in 10.0 mi NW 6.9 mph - N/A   Clear
9:52 AM 69.8 °F 57.2 °F 64% 29.84 in 10.0 mi North 5.8 mph - N/A   Clear
10:12 AM 71.6 °F 57.2 °F 60% 29.83 in 10.0 mi NNE 6.9 mph - N/A   Clear
10:31 AM 71.6 °F 57.2 °F 60% 29.83 in 10.0 mi NNE 8.1 mph - N/A   Clear
10:52 AM 73.4 °F 55.4 °F 53% 29.83 in 10.0 mi ENE 4.6 mph - N/A   Clear
11:12 AM 73.4 °F 55.4 °F 53% 29.83 in 10.0 mi ENE 4.6 mph - N/A   Clear
11:31 AM 73.4 °F 55.4 °F 53% 29.83 in 10.0 mi East 4.6 mph - N/A   Clear
11:52 AM 75.2 °F 53.6 °F 47% 29.83 in 10.0 mi Calm Calm - N/A   Clear
12:12 PM 75.2 °F 55.4 °F 50% 29.83 in 10.0 mi NNW 5.8 mph - N/A   Clear
12:31 PM 77.0 °F 55.4 °F 47% 29.83 in 10.0 mi NNW 5.8 mph - N/A   Clear
12:52 PM 77.0 °F 53.6 °F 44% 29.82 in 10.0 mi NW 8.1 mph - N/A   Clear
1:12 PM 77.0 °F 53.6 °F 44% 29.83 in 10.0 mi North 6.9 mph - N/A   Clear
1:31 PM 77.0 °F 55.4 °F 47% 29.83 in 10.0 mi West 11.5 mph - N/A   Clear
1:52 PM 78.8 °F 53.6 °F 42% 29.83 in 10.0 mi WNW 10.4 mph - N/A   Clear
2:12 PM 78.8 °F 53.6 °F 42% 29.83 in 10.0 mi NNW 9.2 mph - N/A   Clear
2:31 PM 78.8 °F 53.6 °F 42% 29.82 in 10.0 mi West 6.9 mph - N/A   Clear
2:52 PM 78.8 °F 53.6 °F 42% 29.82 in 10.0 mi West 10.4 mph - N/A   Clear
3:12 PM 78.8 °F 53.6 °F 42% 29.82 in 10.0 mi WSW 8.1 mph - N/A   Scattered Clouds
3:31 PM 77.0 °F 53.6 °F 44% 29.83 in 10.0 mi WNW 10.4 mph - N/A   Scattered Clouds
3:52 PM 78.8 °F 51.8 °F 39% 29.83 in 10.0 mi NW 8.1 mph 16.1 mph N/A   Scattered Clouds
4:12 PM 77.0 °F 55.4 °F 47% 29.83 in 10.0 mi West 11.5 mph - N/A   Clear
4:31 PM 75.2 °F 53.6 °F 47% 29.84 in 10.0 mi West 11.5 mph 16.1 mph N/A   Scattered Clouds
5:12 PM 75.2 °F 53.6 °F 47% 29.84 in 10.0 mi WNW 11.5 mph - N/A   Clear
5:32 PM 75.2 °F 51.8 °F 44% 29.84 in 10.0 mi NW 12.7 mph - N/A   Clear
5:52 PM 75.2 °F 51.8 °F 44% 29.84 in 10.0 mi WNW 10.4 mph - N/A   Clear
6:12 PM 73.4 °F 51.8 °F 47% 29.84 in 10.0 mi WNW 12.7 mph 16.1 mph N/A   Clear
6:32 PM 73.4 °F 48.2 °F 41% 29.85 in 10.0 mi WNW 10.4 mph - N/A   Clear
6:52 PM 71.6 °F 46.4 °F 41% 29.86 in 10.0 mi WNW 9.2 mph - N/A   Clear
7:12 PM 69.8 °F 46.4 °F 43% 29.86 in 10.0 mi WNW 6.9 mph - N/A   Clear
7:31 PM 66.2 °F 48.2 °F 52% 29.87 in 10.0 mi West 6.9 mph - N/A   Clear
7:52 PM 64.4 °F 48.2 °F 56% 29.88 in 10.0 mi West 5.8 mph - N/A   Clear
8:11 PM 64.4 °F 48.2 °F 56% 29.88 in 10.0 mi West 5.8 mph - N/A   Clear
8:32 PM 62.6 °F 48.2 °F 59% 29.89 in 10.0 mi West 5.8 mph - N/A   Clear
8:52 PM 62.6 °F 48.2 °F 59% 29.89 in 10.0 mi West 5.8 mph - N/A   Clear
9:11 PM 62.6 °F 46.4 °F 55% 29.89 in 10.0 mi West 6.9 mph - N/A   Clear
9:32 PM 60.8 °F 46.4 °F 59% 29.90 in 10.0 mi West 4.6 mph - N/A   Clear
9:52 PM 60.8 °F 46.4 °F 59% 29.90 in 10.0 mi West 3.5 mph - N/A   Clear
10:11 PM 60.8 °F 48.2 °F 63% 29.91 in 10.0 mi West 5.8 mph - N/A   Clear
10:32 PM 60.8 °F 48.2 °F 63% 29.91 in 10.0 mi West 4.6 mph - N/A   Clear
10:52 PM 57.2 °F 48.2 °F 72% 29.91 in 10.0 mi West 4.6 mph - N/A   Clear
11:11 PM 55.4 °F 48.2 °F 77% 29.91 in 10.0 mi Calm Calm - N/A   Clear
11:32 PM 53.6 °F 48.2 °F 82% 29.91 in 10.0 mi West 4.6 mph - N/A   Clear
11:52 PM 53.6 °F 48.2 °F 82% 29.91 in 10.0 mi West 3.5 mph - N/A   Clear